Time;durP1;ratioP1;P1;durP2;ratioP2;P2;SDS_P1;SDS_P2;PMS_P1;PMS_P2;Temp;Humidity;BMP_temperature;BMP_pressure;BME280_temperature;BME280_humidity;BME280_pressure;Samples;Min_cycle;Max_cycle;Signal;HPM_P1;HPM_P2
2023/11/30 00:01:41;0.00;0.00;0.62;0.00;0.00;0.62;4.90;1.90;;;18.50;24.80;;;;;;2260268;61;20380;-57
2023/11/30 00:04:26;0.00;0.00;0.62;0.00;0.00;0.62;2.63;1.83;;;18.50;24.80;;;;;;2260703;61;20386;-59
2023/11/30 00:07:12;0.00;0.00;0.62;0.00;0.00;0.62;2.53;1.80;;;18.50;24.80;;;;;;2260894;61;20842;-58
2023/11/30 00:09:57;0.00;0.00;0.62;0.00;0.00;0.62;2.33;1.60;;;18.50;24.80;;;;;;2260788;61;20889;-58
2023/11/30 00:12:42;0.00;0.00;0.62;0.00;0.00;0.62;1.90;1.57;;;18.50;24.80;;;;;;2259867;61;20436;-57
2023/11/30 00:15:27;0.00;0.00;0.62;0.00;0.00;0.62;2.23;1.73;;;18.50;24.80;;;;;;2260806;61;20427;-56
2023/11/30 00:18:12;0.00;0.00;0.62;0.00;0.00;0.62;1.90;1.50;;;18.50;24.80;;;;;;2260921;61;20863;-56
2023/11/30 00:20:56;0.00;0.00;0.62;0.00;0.00;0.62;2.60;1.43;;;18.50;24.90;;;;;;2260319;61;20434;-56
2023/11/30 00:23:41;0.00;0.00;0.62;0.00;0.00;0.62;2.37;1.60;;;18.50;24.80;;;;;;2260411;61;20431;-58
2023/11/30 00:26:26;0.00;0.00;0.62;0.00;0.00;0.62;2.07;1.50;;;18.50;24.90;;;;;;2260719;61;20441;-59
2023/11/30 00:29:14;0.00;0.00;0.62;0.00;0.00;0.62;2.07;1.60;;;18.60;24.90;;;;;;2260623;61;20823;-54
2023/11/30 00:31:59;0.00;0.00;0.62;0.00;0.00;0.62;2.63;1.30;;;18.50;24.90;;;;;;2260388;61;20963;-55
2023/11/30 00:34:43;0.00;0.00;0.62;0.00;0.00;0.62;2.50;1.60;;;18.50;24.90;;;;;;2259622;61;20384;-56
2023/11/30 00:37:28;0.00;0.00;0.62;0.00;0.00;0.62;3.90;2.00;;;18.50;24.90;;;;;;2257451;61;20373;-57
2023/11/30 00:40:13;0.00;0.00;0.62;0.00;0.00;0.62;2.40;1.40;;;18.60;25.00;;;;;;2260753;61;20394;-57
2023/11/30 00:42:58;0.00;0.00;0.62;0.00;0.00;0.62;2.43;1.53;;;18.50;24.90;;;;;;2259884;61;20392;-56
2023/11/30 00:45:44;0.00;0.00;0.62;0.00;0.00;0.62;2.60;1.50;;;18.50;24.90;;;;;;2261125;61;20787;-56
2023/11/30 00:48:28;0.00;0.00;0.62;0.00;0.00;0.62;4.13;2.70;;;18.50;24.90;;;;;;2257546;61;20368;-55
2023/11/30 00:51:13;0.00;0.00;0.62;0.00;0.00;0.62;2.63;1.97;;;18.50;24.90;;;;;;2257185;61;20978;-57
2023/11/30 00:53:57;0.00;0.00;0.62;0.00;0.00;0.62;2.40;1.50;;;18.50;24.80;;;;;;2257615;61;20917;-55
2023/11/30 00:56:43;0.00;0.00;0.62;0.00;0.00;0.62;2.77;2.33;;;18.50;24.80;;;;;;2257099;61;20833;-54
2023/11/30 00:59:27;0.00;0.00;0.62;0.00;0.00;0.62;2.10;1.60;;;18.50;24.80;;;;;;2260443;61;20369;-55
2023/11/30 01:02:13;0.00;0.00;0.62;0.00;0.00;0.62;2.03;1.60;;;18.50;24.80;;;;;;2260163;61;20472;-57
2023/11/30 01:04:59;0.00;0.00;0.62;0.00;0.00;0.62;2.17;1.30;;;18.60;24.90;;;;;;2257039;61;20419;-52
2023/11/30 01:07:43;0.00;0.00;0.62;0.00;0.00;0.62;2.10;1.27;;;18.50;24.90;;;;;;2260608;61;20411;-53
2023/11/30 01:10:28;0.00;0.00;0.62;0.00;0.00;0.62;1.80;1.30;;;18.50;24.90;;;;;;2257381;61;20445;-57
2023/11/30 01:13:13;0.00;0.00;0.62;0.00;0.00;0.62;2.00;1.30;;;18.60;25.00;;;;;;2259730;61;20427;-56
2023/11/30 01:15:58;0.00;0.00;0.62;0.00;0.00;0.62;1.90;1.30;;;18.60;24.90;;;;;;2257463;61;20388;-56
2023/11/30 01:18:44;0.00;0.00;0.62;0.00;0.00;0.62;2.80;1.50;;;18.50;24.90;;;;;;2256886;61;20959;-56
2023/11/30 01:21:29;0.00;0.00;0.62;0.00;0.00;0.62;1.70;1.40;;;18.60;25.00;;;;;;2257331;61;20438;-57
2023/11/30 01:24:14;0.00;0.00;0.62;0.00;0.00;0.62;2.30;1.37;;;18.50;24.90;;;;;;2260502;61;20411;-59
2023/11/30 01:26:58;0.00;0.00;0.62;0.00;0.00;0.62;1.77;1.20;;;18.50;24.90;;;;;;2256959;61;20411;-56
2023/11/30 01:29:43;0.00;0.00;0.62;0.00;0.00;0.62;1.67;1.20;;;18.60;25.00;;;;;;2260513;61;20418;-54
2023/11/30 01:32:29;0.00;0.00;0.62;0.00;0.00;0.62;2.37;1.37;;;18.60;25.00;;;;;;2256804;61;20386;-55
2023/11/30 01:35:15;0.00;0.00;0.62;0.00;0.00;0.62;1.60;1.10;;;18.60;25.00;;;;;;2259997;61;20377;-57
2023/11/30 01:38:00;0.00;0.00;0.62;0.00;0.00;0.62;1.93;1.30;;;18.60;25.00;;;;;;2260421;61;20383;-57
2023/11/30 01:40:45;0.00;0.00;0.62;0.00;0.00;0.62;1.90;1.17;;;18.60;25.00;;;;;;2260499;61;20369;-58
2023/11/30 01:43:30;0.00;0.00;0.62;0.00;0.00;0.62;1.90;1.30;;;18.60;25.00;;;;;;2260036;61;20385;-53
2023/11/30 01:46:14;0.00;0.00;0.62;0.00;0.00;0.62;2.27;1.30;;;18.60;25.00;;;;;;2260490;61;20438;-58
2023/11/30 01:49:00;0.00;0.00;0.62;0.00;0.00;0.62;2.30;1.40;;;18.60;25.00;;;;;;2256838;61;20843;-55
2023/11/30 01:51:46;0.00;0.00;0.62;0.00;0.00;0.62;1.50;0.90;;;18.60;25.00;;;;;;2260229;61;20492;-55
2023/11/30 01:54:31;0.00;0.00;0.62;0.00;0.00;0.62;1.80;1.23;;;18.60;25.00;;;;;;2259801;61;20388;-56
2023/11/30 01:57:16;0.00;0.00;0.62;0.00;0.00;0.62;1.50;1.07;;;18.60;25.00;;;;;;2260047;61;20396;-53
2023/11/30 02:00:01;0.00;0.00;0.62;0.00;0.00;0.62;1.90;1.30;;;18.60;25.00;;;;;;2257119;61;20896;-59
2023/11/30 02:02:57;0.00;0.00;0.62;0.00;0.00;0.62;1.77;1.20;;;18.60;25.00;;;;;;2259970;61;20473;-56
2023/11/30 02:05:42;0.00;0.00;0.62;0.00;0.00;0.62;1.63;1.17;;;18.60;25.00;;;;;;2260565;61;20373;-56
2023/11/30 02:08:42;0.00;0.00;0.62;0.00;0.00;0.62;2.43;1.37;;;18.60;25.00;;;;;;2257259;61;20420;-54
2023/11/30 02:11:27;0.00;0.00;0.62;0.00;0.00;0.62;2.03;1.47;;;18.60;25.00;;;;;;2259083;61;20384;-56
2023/11/30 02:14:12;0.00;0.00;0.62;0.00;0.00;0.62;1.50;1.07;;;18.60;25.00;;;;;;2264377;61;20356;-56
2023/11/30 02:16:56;0.00;0.00;0.62;0.00;0.00;0.62;2.03;1.37;;;18.60;25.00;;;;;;2264434;61;20506;-56
2023/11/30 02:19:41;0.00;0.00;0.62;0.00;0.00;0.62;1.63;0.97;;;18.60;25.00;;;;;;2260904;61;20376;-57
2023/11/30 02:22:27;0.00;0.00;0.62;0.00;0.00;0.62;2.53;1.57;;;18.60;25.00;;;;;;2263895;61;20972;-55
2023/11/30 02:25:13;0.00;0.00;0.62;0.00;0.00;0.62;1.80;1.33;;;18.60;25.00;;;;;;2261076;61;20388;-62
2023/11/30 02:27:58;0.00;0.00;0.62;0.00;0.00;0.62;1.77;1.10;;;18.60;25.00;;;;;;2264343;61;20363;-57
2023/11/30 02:30:46;0.00;0.00;0.62;0.00;0.00;0.62;1.57;1.00;;;18.60;24.90;;;;;;2261204;61;20854;-56
2023/11/30 02:33:31;0.00;0.00;0.62;0.00;0.00;0.62;1.67;1.00;;;18.60;25.00;;;;;;2263531;61;20527;-52
2023/11/30 02:36:16;0.00;0.00;0.62;0.00;0.00;0.62;1.47;0.93;;;18.60;25.00;;;;;;2261055;61;20958;-56
2023/11/30 02:39:02;0.00;0.00;0.62;0.00;0.00;0.62;2.00;1.20;;;18.60;25.00;;;;;;2264262;61;20468;-51
2023/11/30 02:41:47;0.00;0.00;0.62;0.00;0.00;0.62;1.87;1.10;;;18.60;24.90;;;;;;2263877;61;20396;-55
2023/11/30 02:44:31;0.00;0.00;0.62;0.00;0.00;0.62;1.93;1.40;;;18.60;25.50;;;;;;2264475;61;20455;-55
2023/11/30 02:47:16;0.00;0.00;0.62;0.00;0.00;0.62;1.97;1.10;;;18.60;24.90;;;;;;2264307;61;20375;-59
2023/11/30 02:50:00;0.00;0.00;0.62;0.00;0.00;0.62;2.13;1.30;;;18.60;24.90;;;;;;2264337;61;20360;-58
2023/11/30 02:52:45;0.00;0.00;0.62;0.00;0.00;0.62;1.80;1.10;;;18.60;24.90;;;;;;2264012;61;20383;-58
2023/11/30 02:55:31;0.00;0.00;0.62;0.00;0.00;0.62;1.70;1.00;;;18.60;24.90;;;;;;2264079;61;20364;-55
2023/11/30 02:58:15;0.00;0.00;0.62;0.00;0.00;0.62;1.90;1.30;;;18.60;25.00;;;;;;2261345;61;20369;-54
2023/11/30 03:01:02;0.00;0.00;0.62;0.00;0.00;0.62;1.40;0.90;;;18.60;24.90;;;;;;2264574;61;20389;-51
2023/11/30 03:03:46;0.00;0.00;0.62;0.00;0.00;0.62;1.60;0.97;;;18.60;24.90;;;;;;2264435;61;20392;-55
2023/11/30 03:06:31;0.00;0.00;0.62;0.00;0.00;0.62;2.10;1.27;;;18.70;25.00;;;;;;2264936;61;20426;-53
2023/11/30 03:09:16;0.00;0.00;0.62;0.00;0.00;0.62;1.70;1.00;;;18.60;24.90;;;;;;2258229;61;20916;-57
2023/11/30 03:12:02;0.00;0.00;0.62;0.00;0.00;0.62;1.50;1.00;;;18.60;25.00;;;;;;2260299;61;20376;-56
2023/11/30 03:14:47;0.00;0.00;0.62;0.00;0.00;0.62;1.90;1.27;;;18.60;25.00;;;;;;2261062;61;20495;-57
2023/11/30 03:17:32;0.00;0.00;0.62;0.00;0.00;0.62;1.63;1.03;;;18.60;25.00;;;;;;2260443;61;20498;-59
2023/11/30 03:20:16;0.00;0.00;0.62;0.00;0.00;0.62;1.60;0.93;;;18.60;24.90;;;;;;2261049;61;20472;-57
2023/11/30 03:23:01;0.00;0.00;0.62;0.00;0.00;0.62;1.80;1.17;;;18.60;24.90;;;;;;2257339;61;20924;-56
2023/11/30 03:25:46;0.00;0.00;0.62;0.00;0.00;0.62;1.63;0.93;;;18.60;24.90;;;;;;2260467;61;20365;-54
2023/11/30 03:28:32;0.00;0.00;0.62;0.00;0.00;0.62;2.00;1.20;;;18.60;24.90;;;;;;2260975;61;20396;-53
2023/11/30 03:31:17;0.00;0.00;0.62;0.00;0.00;0.62;1.60;1.00;;;18.60;24.90;;;;;;2260827;61;20442;-62
2023/11/30 03:34:01;0.00;0.00;0.62;0.00;0.00;0.62;1.83;1.23;;;18.60;24.90;;;;;;2257463;61;20368;-55
2023/11/30 03:36:46;0.00;0.00;0.62;0.00;0.00;0.62;1.73;1.20;;;18.60;24.90;;;;;;2260910;61;20992;-56
2023/11/30 03:39:30;0.00;0.00;0.62;0.00;0.00;0.62;1.80;1.10;;;18.60;25.00;;;;;;2260393;61;20443;-52
2023/11/30 03:42:15;0.00;0.00;0.62;0.00;0.00;0.62;1.60;1.00;;;18.60;24.90;;;;;;2260474;61;20451;-51
2023/11/30 03:45:01;0.00;0.00;0.62;0.00;0.00;0.62;2.00;1.40;;;18.60;24.90;;;;;;2260839;61;20383;-55
2023/11/30 03:47:45;0.00;0.00;0.62;0.00;0.00;0.62;1.67;1.20;;;18.70;25.00;;;;;;2260442;61;20391;-58
2023/11/30 03:50:30;0.00;0.00;0.62;0.00;0.00;0.62;1.77;1.17;;;18.60;24.90;;;;;;2260797;61;20736;-56
2023/11/30 03:53:15;0.00;0.00;0.62;0.00;0.00;0.62;1.87;1.20;;;18.60;24.90;;;;;;2260512;61;20396;-57
2023/11/30 03:55:59;0.00;0.00;0.62;0.00;0.00;0.62;1.43;0.90;;;18.60;24.90;;;;;;2260379;61;20353;-53
2023/11/30 03:58:44;0.00;0.00;0.62;0.00;0.00;0.62;1.60;1.00;;;18.60;24.90;;;;;;2260819;61;20428;-53
2023/11/30 04:01:30;0.00;0.00;0.62;0.00;0.00;0.62;1.93;1.10;;;18.60;24.90;;;;;;2256989;61;20828;-59
2023/11/30 04:04:14;0.00;0.00;0.62;0.00;0.00;0.62;1.83;1.00;;;18.60;24.90;;;;;;2257482;61;20399;-63
2023/11/30 04:06:59;0.00;0.00;0.62;0.00;0.00;0.62;1.50;0.90;;;18.60;24.90;;;;;;2257603;61;20368;-55
2023/11/30 04:09:45;0.00;0.00;0.62;0.00;0.00;0.62;1.70;1.00;;;18.60;24.90;;;;;;2256618;61;20443;-54
2023/11/30 04:12:30;0.00;0.00;0.62;0.00;0.00;0.62;1.37;0.83;;;18.60;25.00;;;;;;2260191;61;20385;-55
2023/11/30 04:15:14;0.00;0.00;0.62;0.00;0.00;0.62;1.80;1.27;;;18.60;24.90;;;;;;2260880;61;20474;-54
2023/11/30 04:18:00;0.00;0.00;0.62;0.00;0.00;0.62;1.70;1.07;;;18.60;24.90;;;;;;2259603;61;20416;-54
2023/11/30 04:20:47;0.00;0.00;0.62;0.00;0.00;0.62;1.97;1.17;;;18.60;24.90;;;;;;2257624;61;20412;-53
2023/11/30 04:23:32;0.00;0.00;0.62;0.00;0.00;0.62;1.67;1.00;;;18.60;24.90;;;;;;2260517;61;20465;-58
2023/11/30 04:26:16;0.00;0.00;0.62;0.00;0.00;0.62;1.83;1.10;;;18.60;25.00;;;;;;2257505;61;20364;-51
2023/11/30 04:29:01;0.00;0.00;0.62;0.00;0.00;0.62;1.40;1.00;;;18.60;24.90;;;;;;2260755;61;20365;-57
2023/11/30 04:31:46;0.00;0.00;0.62;0.00;0.00;0.62;1.80;1.00;;;18.60;24.90;;;;;;2256809;61;20445;-53
2023/11/30 04:34:31;0.00;0.00;0.62;0.00;0.00;0.62;1.70;1.00;;;18.70;25.00;;;;;;2257456;61;20381;-57
2023/11/30 04:37:16;0.00;0.00;0.62;0.00;0.00;0.62;2.13;1.27;;;18.60;24.90;;;;;;2261105;61;20373;-53
2023/11/30 04:40:01;0.00;0.00;0.62;0.00;0.00;0.62;1.90;1.13;;;18.60;24.90;;;;;;2257185;61;20368;-54
2023/11/30 04:42:45;0.00;0.00;0.62;0.00;0.00;0.62;1.60;1.00;;;18.60;24.90;;;;;;2257016;61;20471;-55
2023/11/30 04:45:30;0.00;0.00;0.62;0.00;0.00;0.62;1.67;1.00;;;18.60;24.90;;;;;;2260663;61;20396;-56
2023/11/30 04:48:15;0.00;0.00;0.62;0.00;0.00;0.62;1.53;0.93;;;18.60;24.90;;;;;;2257260;61;20412;-55
2023/11/30 04:51:01;0.00;0.00;0.62;0.00;0.00;0.62;1.40;0.97;;;18.60;24.90;;;;;;2257415;61;20404;-56
2023/11/30 04:53:45;0.00;0.00;0.62;0.00;0.00;0.62;1.80;1.40;;;18.60;24.90;;;;;;2259970;61;20420;-55
2023/11/30 04:56:30;0.00;0.00;0.62;0.00;0.00;0.62;1.47;1.00;;;18.60;24.90;;;;;;2260549;61;20400;-56
2023/11/30 04:59:14;0.00;0.00;0.62;0.00;0.00;0.62;1.97;1.13;;;18.60;24.90;;;;;;2257373;61;20377;-56
2023/11/30 05:01:59;0.00;0.00;0.62;0.00;0.00;0.62;1.53;0.90;;;18.60;24.90;;;;;;2259627;61;20459;-53
2023/11/30 05:04:43;0.00;0.00;0.62;0.00;0.00;0.62;1.50;1.00;;;18.60;24.90;;;;;;2260609;61;20365;-56
2023/11/30 05:07:29;0.00;0.00;0.62;0.00;0.00;0.62;1.50;0.90;;;18.60;24.90;;;;;;2257410;61;20361;-54
2023/11/30 05:10:14;0.00;0.00;0.62;0.00;0.00;0.62;1.80;1.10;;;18.60;24.90;;;;;;2260061;61;20373;-58
2023/11/30 05:12:59;0.00;0.00;0.62;0.00;0.00;0.62;1.70;1.07;;;18.60;24.90;;;;;;2260126;61;20473;-55
2023/11/30 05:15:44;0.00;0.00;0.62;0.00;0.00;0.62;1.60;1.00;;;18.60;24.90;;;;;;2260238;61;20605;-55
2023/11/30 05:18:28;0.00;0.00;0.62;0.00;0.00;0.62;1.83;1.10;;;18.60;24.90;;;;;;2260289;61;20449;-56
2023/11/30 05:21:13;0.00;0.00;0.62;0.00;0.00;0.62;1.90;1.10;;;18.60;24.90;;;;;;2260714;61;20950;-56
2023/11/30 05:23:59;0.00;0.00;0.62;0.00;0.00;0.62;1.60;1.10;;;18.60;24.90;;;;;;2259822;61;20384;-59
2023/11/30 05:26:44;0.00;0.00;0.62;0.00;0.00;0.62;1.70;1.10;;;18.60;24.90;;;;;;2260590;61;20364;-57
2023/11/30 05:29:28;0.00;0.00;0.62;0.00;0.00;0.62;1.60;1.17;;;18.60;25.40;;;;;;2260677;61;20856;-52
2023/11/30 05:32:13;0.00;0.00;0.62;0.00;0.00;0.62;1.50;1.00;;;18.60;24.90;;;;;;2255816;61;20393;-56
2023/11/30 05:34:57;0.00;0.00;0.62;0.00;0.00;0.62;3.10;1.07;;;18.60;24.90;;;;;;2260892;61;20744;-53
2023/11/30 05:37:42;0.00;0.00;0.62;0.00;0.00;0.62;1.73;1.07;;;18.60;24.90;;;;;;2260667;61;20778;-60
2023/11/30 05:40:28;0.00;0.00;0.62;0.00;0.00;0.62;1.70;1.10;;;18.60;25.00;;;;;;2261319;61;20464;-55
2023/11/30 05:43:12;0.00;0.00;0.62;0.00;0.00;0.62;1.60;1.03;;;18.60;24.90;;;;;;2260822;61;20396;-60
2023/11/30 05:45:57;0.00;0.00;0.62;0.00;0.00;0.62;1.50;1.00;;;18.60;24.90;;;;;;2260852;61;20373;-59
2023/11/30 05:48:42;0.00;0.00;0.62;0.00;0.00;0.62;1.50;0.90;;;18.60;24.90;;;;;;2261259;61;20439;-59
2023/11/30 05:51:26;0.00;0.00;0.62;0.00;0.00;0.62;1.60;1.10;;;18.60;24.90;;;;;;2261115;61;20408;-54
2023/11/30 05:54:11;0.00;0.00;0.62;0.00;0.00;0.62;1.83;1.20;;;18.60;24.90;;;;;;2260821;61;20984;-55
2023/11/30 05:56:56;0.00;0.00;0.62;0.00;0.00;0.62;2.13;1.30;;;18.60;24.90;;;;;;2261193;61;20664;-55
2023/11/30 05:59:42;0.00;0.00;0.62;0.00;0.00;0.62;2.33;1.37;;;18.60;25.00;;;;;;2261003;61;21088;-57
2023/11/30 06:02:27;0.00;0.00;0.62;0.00;0.00;0.62;1.77;1.27;;;18.60;24.90;;;;;;2260490;61;20442;-58
2023/11/30 06:05:12;0.00;0.00;0.62;0.00;0.00;0.62;1.70;1.27;;;18.60;24.90;;;;;;2260919;61;20381;-57
2023/11/30 06:07:56;0.00;0.00;0.62;0.00;0.00;0.62;1.97;1.40;;;18.60;24.90;;;;;;2260631;61;20400;-59
2023/11/30 06:10:41;0.00;0.00;0.62;0.00;0.00;0.62;1.73;1.13;;;18.60;24.90;;;;;;2261280;61;20946;-59
2023/11/30 06:13:27;0.00;0.00;0.62;0.00;0.00;0.62;1.87;1.03;;;18.60;24.90;;;;;;2260715;61;20412;-57
2023/11/30 06:16:11;0.00;0.00;0.62;0.00;0.00;0.62;1.93;1.30;;;18.60;24.90;;;;;;2260636;61;20368;-56
2023/11/30 06:18:56;0.00;0.00;0.62;0.00;0.00;0.62;2.90;1.57;;;18.60;24.90;;;;;;2260758;61;20361;-58
2023/11/30 06:21:41;0.00;0.00;0.62;0.00;0.00;0.62;1.60;0.93;;;18.60;24.90;;;;;;2260491;61;20384;-57
2023/11/30 06:24:26;0.00;0.00;0.62;0.00;0.00;0.62;1.80;1.20;;;18.60;24.90;;;;;;2260617;61;20369;-58
2023/11/30 06:27:11;0.00;0.00;0.62;0.00;0.00;0.62;1.80;1.20;;;18.50;24.90;;;;;;2260988;61;20411;-58
2023/11/30 06:29:57;0.00;0.00;0.62;0.00;0.00;0.62;1.70;1.20;;;18.50;24.90;;;;;;2260701;61;20475;-61
2023/11/30 06:32:41;0.00;0.00;0.62;0.00;0.00;0.62;1.93;1.47;;;18.50;24.90;;;;;;2260647;61;20941;-55
2023/11/30 06:35:26;0.00;0.00;0.62;0.00;0.00;0.62;2.87;1.67;;;18.50;24.90;;;;;;2261889;61;20931;-60
2023/11/30 06:38:11;0.00;0.00;0.62;0.00;0.00;0.62;1.90;1.40;;;18.60;24.90;;;;;;2262073;61;20372;-55
2023/11/30 06:40:56;0.00;0.00;0.62;0.00;0.00;0.62;2.10;1.37;;;18.50;24.90;;;;;;2262437;61;20364;-61
2023/11/30 06:43:41;0.00;0.00;0.62;0.00;0.00;0.62;1.97;1.37;;;18.50;24.90;;;;;;2262079;61;20504;-60
2023/11/30 06:46:27;0.00;0.00;0.62;0.00;0.00;0.62;1.90;1.40;;;18.60;24.90;;;;;;2261983;61;20364;-57
2023/11/30 06:49:13;0.00;0.00;0.62;0.00;0.00;0.62;2.40;1.30;;;18.50;24.90;;;;;;2259261;61;20403;-58
2023/11/30 06:51:58;0.00;0.00;0.62;0.00;0.00;0.62;1.97;1.30;;;18.60;24.90;;;;;;2261652;61;20820;-58
2023/11/30 06:54:43;0.00;0.00;0.62;0.00;0.00;0.62;1.80;1.30;;;18.50;24.90;;;;;;2262323;61;20368;-59
2023/11/30 06:57:28;0.00;0.00;0.62;0.00;0.00;0.62;1.60;1.13;;;18.50;24.90;;;;;;2262529;61;20364;-58
2023/11/30 07:00:14;0.00;0.00;0.62;0.00;0.00;0.62;2.37;1.47;;;18.50;24.90;;;;;;2261853;61;20835;-58
2023/11/30 07:03:00;0.00;0.00;0.62;0.00;0.00;0.62;1.77;1.30;;;18.50;24.90;;;;;;2258502;61;20434;-63
2023/11/30 07:05:44;0.00;0.00;0.62;0.00;0.00;0.62;1.80;1.40;;;18.50;24.90;;;;;;2262221;61;20373;-57
2023/11/30 07:08:29;0.00;0.00;0.62;0.00;0.00;0.62;2.13;1.50;;;18.50;24.90;;;;;;2262074;61;20388;-57
2023/11/30 07:11:16;0.00;0.00;0.62;0.00;0.00;0.62;2.27;1.63;;;18.50;24.90;;;;;;2263155;61;20364;-57
2023/11/30 07:14:02;0.00;0.00;0.62;0.00;0.00;0.62;2.60;1.50;;;18.50;24.90;;;;;;2262577;61;20427;-55
2023/11/30 07:16:46;0.00;0.00;0.62;0.00;0.00;0.62;2.40;1.70;;;18.50;24.90;;;;;;2259938;61;20361;-55
2023/11/30 07:19:32;0.00;0.00;0.62;0.00;0.00;0.62;2.50;1.77;;;18.50;24.90;;;;;;2261594;61;20365;-57
2023/11/30 07:22:17;0.00;0.00;0.62;0.00;0.00;0.62;2.13;1.70;;;18.50;25.00;;;;;;2261228;61;20937;-60
2023/11/30 07:25:01;0.00;0.00;0.62;0.00;0.00;0.62;7.70;5.90;;;18.50;25.00;;;;;;2264303;61;21015;-60
2023/11/30 07:27:46;0.00;0.00;0.62;0.00;0.00;0.62;9.33;7.80;;;18.50;24.40;;;;;;2263678;61;20514;-61
2023/11/30 07:30:30;0.00;0.00;0.62;0.00;0.00;0.62;10.30;7.57;;;18.50;23.10;;;;;;2265065;61;20409;-60
2023/11/30 07:33:15;0.00;0.00;0.62;0.00;0.00;0.62;6.23;5.63;;;18.30;22.10;;;;;;2267444;61;20396;-58
2023/11/30 07:36:01;0.00;0.00;0.62;0.00;0.00;0.62;6.13;5.50;;;18.20;22.30;;;;;;2266960;61;20368;-61
2023/11/30 07:38:46;0.00;0.00;0.62;0.00;0.00;0.62;5.67;5.03;;;18.00;22.90;;;;;;2264068;61;20490;-57
2023/11/30 07:41:30;0.00;0.00;0.62;0.00;0.00;0.62;5.00;4.20;;;17.90;23.30;;;;;;2265355;61;20414;-59
2023/11/30 07:44:15;0.00;0.00;0.62;0.00;0.00;0.62;7.20;4.97;;;17.80;23.60;;;;;;2267686;61;20895;-60
2023/11/30 07:46:59;0.00;0.00;0.62;0.00;0.00;0.62;5.27;4.07;;;17.80;23.90;;;;;;2266983;61;20360;-60
2023/11/30 07:49:44;0.00;0.00;0.62;0.00;0.00;0.62;6.50;4.87;;;17.80;24.00;;;;;;2267399;61;20371;-58
2023/11/30 07:52:32;0.00;0.00;0.62;0.00;0.00;0.62;5.40;4.27;;;17.70;24.10;;;;;;2266440;61;20423;-58
2023/11/30 07:55:17;0.00;0.00;0.62;0.00;0.00;0.62;5.23;4.47;;;17.70;24.20;;;;;;2500014;53;20412;-58
2023/11/30 07:58:01;0.00;0.00;0.62;0.00;0.00;0.62;7.00;5.03;;;17.70;24.20;;;;;;2263148;61;20388;-62
2023/11/30 08:00:46;0.00;0.00;0.62;0.00;0.00;0.62;5.80;4.63;;;17.80;24.30;;;;;;2258519;61;20378;-58
2023/11/30 08:03:31;0.00;0.00;0.62;0.00;0.00;0.62;5.90;4.87;;;17.80;24.30;;;;;;2258686;61;20922;-60
2023/11/30 08:06:16;0.00;0.00;0.62;0.00;0.00;0.62;7.23;5.67;;;17.80;24.40;;;;;;2258611;61;20410;-57
2023/11/30 08:09:03;0.00;0.00;0.62;0.00;0.00;0.62;6.90;5.27;;;17.80;24.40;;;;;;2258660;61;20362;-54
2023/11/30 08:11:48;0.00;0.00;0.62;0.00;0.00;0.62;7.07;5.57;;;17.80;24.40;;;;;;2258800;61;20831;-56
2023/11/30 08:14:33;0.00;0.00;0.62;0.00;0.00;0.62;6.60;5.53;;;17.80;24.50;;;;;;2258614;61;20365;-57
2023/11/30 08:17:18;0.00;0.00;0.62;0.00;0.00;0.62;7.23;5.57;;;17.80;24.50;;;;;;2259083;61;20386;-57
2023/11/30 08:20:03;0.00;0.00;0.62;0.00;0.00;0.62;6.53;5.47;;;17.80;24.50;;;;;;2258885;61;20381;-58
2023/11/30 08:22:48;0.00;0.00;0.62;0.00;0.00;0.62;7.43;6.50;;;17.90;24.50;;;;;;2258370;61;20521;-59
2023/11/30 08:25:35;0.00;0.00;0.62;0.00;0.00;0.62;7.37;5.30;;;17.90;24.50;;;;;;2259137;61;20374;-54
2023/11/30 08:28:19;0.00;0.00;0.62;0.00;0.00;0.62;7.50;6.10;;;17.90;24.50;;;;;;2258469;61;20501;-57
2023/11/30 08:31:05;0.00;0.00;0.62;0.00;0.00;0.62;7.20;5.87;;;17.90;24.50;;;;;;2258510;61;20385;-59
2023/11/30 08:33:50;0.00;0.00;0.62;0.00;0.00;0.62;9.33;6.90;;;17.90;24.50;;;;;;2258961;61;20386;-60
2023/11/30 08:36:35;0.00;0.00;0.62;0.00;0.00;0.62;8.50;6.80;;;17.90;24.50;;;;;;2258207;61;20346;-58
2023/11/30 08:39:23;0.00;0.00;0.62;0.00;0.00;0.62;8.70;6.90;;;17.90;24.50;;;;;;2258387;61;20373;-64
2023/11/30 08:42:09;0.00;0.00;0.62;0.00;0.00;0.62;9.40;7.23;;;17.90;24.50;;;;;;2258298;61;20827;-57
2023/11/30 08:44:54;0.00;0.00;0.62;0.00;0.00;0.62;9.63;6.90;;;18.00;24.60;;;;;;2257898;61;20365;-57
2023/11/30 08:47:39;0.00;0.00;0.62;0.00;0.00;0.62;8.67;6.63;;;17.90;24.60;;;;;;2254779;61;20362;-55
2023/11/30 08:50:23;0.00;0.00;0.62;0.00;0.00;0.62;8.27;6.87;;;18.00;24.70;;;;;;2256843;61;20637;-56
2023/11/30 08:53:08;0.00;0.00;0.62;0.00;0.00;0.62;8.63;6.60;;;18.00;24.70;;;;;;2257060;61;20378;-60
2023/11/30 08:55:52;0.00;0.00;0.62;0.00;0.00;0.62;8.77;6.03;;;18.00;24.70;;;;;;2255720;61;20462;-52
2023/11/30 08:58:38;0.00;0.00;0.62;0.00;0.00;0.62;8.20;6.63;;;18.00;24.80;;;;;;2259391;61;20372;-60
2023/11/30 09:01:23;0.00;0.00;0.62;0.00;0.00;0.62;6.60;5.53;;;18.00;24.80;;;;;;2263440;61;20426;-58
2023/11/30 09:04:08;0.00;0.00;0.62;0.00;0.00;0.62;8.57;6.77;;;18.00;24.90;;;;;;2263428;61;20815;-56
2023/11/30 09:06:53;0.00;0.00;0.62;0.00;0.00;0.62;7.73;6.00;;;18.00;24.90;;;;;;2262952;61;20437;-57
2023/11/30 09:09:38;0.00;0.00;0.62;0.00;0.00;0.62;6.47;5.77;;;18.10;25.00;;;;;;2260135;61;20882;-53
2023/11/30 09:12:22;0.00;0.00;0.62;0.00;0.00;0.62;6.80;5.80;;;18.10;25.00;;;;;;2259214;61;20445;-55
2023/11/30 09:15:10;0.00;0.00;0.62;0.00;0.00;0.62;6.87;5.50;;;18.10;25.00;;;;;;2259287;61;20437;-58
2023/11/30 09:17:56;0.00;0.00;0.62;0.00;0.00;0.62;7.23;5.80;;;18.10;25.10;;;;;;2263071;61;20377;-55
2023/11/30 09:20:41;0.00;0.00;0.62;0.00;0.00;0.62;6.37;5.67;;;18.10;25.10;;;;;;2262518;61;20367;-56
2023/11/30 09:23:29;0.00;0.00;0.62;0.00;0.00;0.62;6.97;5.30;;;18.10;25.10;;;;;;2262214;61;20392;-58
2023/11/30 09:26:14;0.00;0.00;0.62;0.00;0.00;0.62;7.17;5.10;;;18.20;25.20;;;;;;2263524;61;20450;-62
2023/11/30 09:28:58;0.00;0.00;0.62;0.00;0.00;0.62;11.70;10.50;;;18.20;25.20;;;;;;2258814;61;20579;-59
2023/11/30 09:31:45;0.00;0.00;0.62;0.00;0.00;0.62;11.23;9.97;;;18.20;24.40;;;;;;2260285;61;20357;-56
2023/11/30 09:34:30;0.00;0.00;0.62;0.00;0.00;0.62;10.40;9.30;;;18.10;23.30;;;;;;2262518;61;20373;-59
2023/11/30 09:37:14;0.00;0.00;0.62;0.00;0.00;0.62;9.97;8.27;;;18.00;23.00;;;;;;2263563;61;20933;-63
2023/11/30 09:39:59;0.00;0.00;0.62;0.00;0.00;0.62;7.80;7.00;;;17.90;23.30;;;;;;2628491;45;20448;-58
2023/11/30 09:42:45;0.00;0.00;0.62;0.00;0.00;0.62;7.33;6.50;;;17.80;23.70;;;;;;2262470;61;20841;-61
2023/11/30 09:45:31;0.00;0.00;0.62;0.00;0.00;0.62;6.80;6.00;;;17.70;23.90;;;;;;2263931;61;20407;-60
2023/11/30 09:48:17;0.00;0.00;0.62;0.00;0.00;0.62;6.40;5.13;;;17.70;24.10;;;;;;2263150;61;20360;-60
2023/11/30 09:51:02;0.00;0.00;0.62;0.00;0.00;0.62;6.27;5.40;;;17.70;24.20;;;;;;2263299;61;20423;-64
2023/11/30 09:53:47;0.00;0.00;0.62;0.00;0.00;0.62;4.67;4.27;;;17.70;24.30;;;;;;2262861;61;20408;-61
2023/11/30 09:56:31;0.00;0.00;0.62;0.00;0.00;0.62;5.80;5.10;;;17.70;24.40;;;;;;2263485;61;20364;-60
2023/11/30 09:59:16;0.00;0.00;0.62;0.00;0.00;0.62;6.50;4.00;;;17.70;24.50;;;;;;2260367;61;20432;-60
2023/11/30 10:02:00;0.00;0.00;0.62;0.00;0.00;0.62;5.47;4.03;;;17.70;24.50;;;;;;2263215;61;20943;-58
2023/11/30 10:04:47;0.00;0.00;0.62;0.00;0.00;0.62;4.70;4.17;;;17.80;24.60;;;;;;2263060;61;20956;-60
2023/11/30 10:07:31;0.00;0.00;0.62;0.00;0.00;0.62;4.70;4.20;;;17.80;24.60;;;;;;2263514;61;20373;-60
2023/11/30 10:10:16;0.00;0.00;0.62;0.00;0.00;0.62;4.20;3.80;;;17.80;24.60;;;;;;2260076;61;20369;-59
2023/11/30 10:13:00;0.00;0.00;0.62;0.00;0.00;0.62;3.80;3.10;;;17.80;24.70;;;;;;2262618;61;20431;-63
2023/11/30 10:15:45;0.00;0.00;0.62;0.00;0.00;0.62;4.17;3.70;;;17.80;24.60;;;;;;2263921;61;20361;-58
2023/11/30 10:18:30;0.00;0.00;0.62;0.00;0.00;0.62;4.63;4.00;;;17.90;24.70;;;;;;2263355;61;20396;-56
2023/11/30 10:21:16;0.00;0.00;0.62;0.00;0.00;0.62;6.00;4.00;;;17.90;24.70;;;;;;2263646;61;20384;-56
2023/11/30 10:24:01;0.00;0.00;0.62;0.00;0.00;0.62;4.63;3.60;;;17.90;24.70;;;;;;2263801;61;20376;-60
2023/11/30 10:26:50;0.00;0.00;0.62;0.00;0.00;0.62;4.63;3.80;;;17.90;24.70;;;;;;2263258;61;20419;-59
2023/11/30 10:29:41;0.00;0.00;0.62;0.00;0.00;0.62;4.40;4.00;;;17.90;24.70;;;;;;2263745;61;20760;-58
2023/11/30 10:32:25;0.00;0.00;0.62;0.00;0.00;0.62;5.90;4.47;;;18.00;24.80;;;;;;2260168;61;20376;-61
2023/11/30 10:35:14;0.00;0.00;0.62;0.00;0.00;0.62;6.13;5.03;;;18.00;24.80;;;;;;2263183;61;20400;-59
2023/11/30 10:38:04;0.00;0.00;0.62;0.00;0.00;0.62;6.03;5.40;;;18.00;24.80;;;;;;2266516;61;20368;-61
2023/11/30 10:40:53;0.00;0.00;0.62;0.00;0.00;0.62;9.40;7.23;;;18.00;24.80;;;;;;2267512;61;20380;-55
2023/11/30 10:43:46;0.00;0.00;0.62;0.00;0.00;0.62;9.23;7.97;;;18.00;24.80;;;;;;2261534;61;20411;-59
2023/11/30 10:46:33;0.00;0.00;0.62;0.00;0.00;0.62;11.50;8.37;;;18.00;24.80;;;;;;2267762;61;20396;-58
2023/11/30 10:49:18;0.00;0.00;0.62;0.00;0.00;0.62;10.07;8.80;;;18.10;24.80;;;;;;2267143;61;20416;-55
2023/11/30 10:52:04;0.00;0.00;0.62;0.00;0.00;0.62;11.10;9.40;;;18.10;24.90;;;;;;2267492;61;20412;-58